Time;durP1;ratioP1;P1;durP2;ratioP2;P2;SDS_P1;SDS_P2;PMS_P1;PMS_P2;Temp;Humidity;BMP_temperature;BMP_pressure;BME280_temperature;BME280_humidity;BME280_pressure;Samples;Min_cycle;Max_cycle;Signal;HPM_P1;HPM_P2
2022/05/31 00:02:10;;;;;;;12.63;6.97;;;10.30;99.90;;;;;;5056996;28;20056;-72
2022/05/31 00:04:38;;;;;;;18.75;7.97;;;10.30;99.90;;;;;;5056541;28;20049;-73
2022/05/31 00:07:06;;;;;;;12.52;6.65;;;10.40;99.90;;;;;;5055211;28;20049;-72
2022/05/31 00:09:34;;;;;;;16.65;7.22;;;10.40;99.90;;;;;;5056453;28;20048;-72
2022/05/31 00:12:02;;;;;;;12.88;7.20;;;10.40;99.90;;;;;;5055997;28;20048;-73
2022/05/31 00:14:29;;;;;;;;;;;10.40;99.90;;;;;;5056343;28;20455;-73
2022/05/31 00:16:57;;;;;;;14.65;6.53;;;10.40;99.90;;;;;;5056255;28;19920;-73
2022/05/31 00:19:24;;;;;;;16.25;7.35;;;10.40;99.90;;;;;;5055065;28;20045;-73
2022/05/31 00:22:00;;;;;;;16.60;6.75;;;10.50;99.90;;;;;;5056013;28;20460;-73
2022/05/31 00:24:28;;;;;;;14.70;6.88;;;10.40;99.90;;;;;;5056284;28;20041;-73
2022/05/31 00:26:56;;;;;;;13.23;7.10;;;10.50;99.90;;;;;;5054500;28;20494;-73
2022/05/31 00:29:23;;;;;;;13.57;6.90;;;10.40;99.90;;;;;;5055120;28;20056;-73
2022/05/31 00:31:51;;;;;;;11.13;6.05;;;10.50;99.90;;;;;;5055106;28;20045;-73
2022/05/31 00:34:20;;;;;;;12.63;7.10;;;10.50;99.90;;;;;;5054818;28;20474;-73
2022/05/31 00:36:49;;;;;;;10.50;6.40;;;10.50;99.90;;;;;;5054830;28;20057;-73
2022/05/31 00:39:18;;;;;;;11.27;6.20;;;10.50;99.90;;;;;;5053734;28;20352;-73
2022/05/31 00:41:57;;;;;;;13.77;6.72;;;10.50;99.90;;;;;;5055321;28;20044;-73
2022/05/31 00:44:27;;;;;;;10.07;6.35;;;10.50;99.90;;;;;;5055980;28;20041;-73
2022/05/31 00:46:59;;;;;;;12.63;6.07;;;10.50;99.90;;;;;;5054363;28;20382;-73
2022/05/31 00:49:44;;;;;;;19.92;6.85;;;10.50;99.90;;;;;;5054686;28;20056;-73
2022/05/31 00:52:23;;;;;;;10.65;6.28;;;10.50;99.90;;;;;;5037486;28;20055;-73
2022/05/31 00:55:02;;;;;;;11.05;5.85;;;10.50;99.90;;;;;;5054485;28;20063;-73
2022/05/31 00:57:32;;;;;;;12.00;5.88;;;10.50;99.90;;;;;;5055434;28;20045;-73
2022/05/31 01:00:09;;;;;;;10.40;5.90;;;10.60;99.90;;;;;;5053731;28;20060;-73
2022/05/31 01:02:39;;;;;;;13.70;7.32;;;10.50;99.90;;;;;;5054828;28;20041;-73
2022/05/31 01:05:10;;;;;;;12.35;6.32;;;10.50;99.90;;;;;;5054052;28;20060;-73
2022/05/31 01:07:37;;;;;;;12.55;6.30;;;10.50;99.90;;;;;;5054192;28;20494;-73
2022/05/31 01:10:08;;;;;;;16.65;6.55;;;10.50;99.90;;;;;;5054279;28;20056;-73
2022/05/31 01:12:43;;;;;;;16.33;7.30;;;10.50;99.90;;;;;;5054548;28;20049;-73
2022/05/31 01:15:30;;;;;;;18.48;9.77;;;10.50;99.90;;;;;;5054521;28;20064;-73
2022/05/31 01:18:20;;;;;;;20.38;10.88;;;10.50;99.90;;;;;;5026687;28;20523;-73
2022/05/31 01:21:07;;;;;;;19.52;11.35;;;10.50;99.90;;;;;;5053847;28;20044;-73
2022/05/31 01:24:02;;;;;;;19.52;13.35;;;10.50;99.90;;;;;;5040728;28;20049;-73
2022/05/31 01:26:35;;;;;;;18.40;12.20;;;10.50;99.90;;;;;;5053885;28;20064;-73
2022/05/31 01:29:15;;;;;;;19.13;11.82;;;10.40;99.90;;;;;;5054922;28;20049;-72
2022/05/31 01:31:59;;;;;;;32.22;15.10;;;10.50;99.90;;;;;;5055032;28;20037;-72
2022/05/31 01:34:29;;;;;;;16.70;11.75;;;10.50;99.90;;;;;;5052835;28;20060;-73
2022/05/31 01:36:58;;;;;;;15.85;9.88;;;10.40;99.90;;;;;;5054613;28;20103;-73
2022/05/31 01:39:48;;;;;;;17.92;9.98;;;10.40;99.90;;;;;;5053638;28;20053;-73
2022/05/31 01:42:40;;;;;;;20.65;11.43;;;10.40;99.90;;;;;;5054663;28;20037;-72
2022/05/31 01:45:12;;;;;;;19.73;11.32;;;10.40;99.90;;;;;;5053815;28;20071;-73
2022/05/31 01:47:41;;;;;;;18.85;12.05;;;10.40;99.90;;;;;;5053508;28;20379;-73
2022/05/31 01:50:14;;;;;;;20.83;11.18;;;10.40;99.90;;;;;;5054620;28;20049;-72
2022/05/31 01:52:44;;;;;;;19.80;11.45;;;10.30;99.90;;;;;;5052640;28;20055;-73
2022/05/31 01:55:13;;;;;;;21.83;12.38;;;10.20;99.90;;;;;;5053525;28;20056;-72
2022/05/31 01:57:44;;;;;;;20.58;11.73;;;10.30;99.90;;;;;;5053676;28;20037;-72
2022/05/31 02:00:14;;;;;;;14.82;10.45;;;10.30;99.90;;;;;;5052779;28;20052;-73
2022/05/31 02:02:46;;;;;;;18.85;9.13;;;10.30;99.90;;;;;;5053714;28;20037;-72
2022/05/31 02:05:15;;;;;;;18.08;7.70;;;10.20;99.90;;;;;;5054827;28;20041;-72
2022/05/31 02:07:54;;;;;;;11.20;6.70;;;10.20;99.90;;;;;;5052638;28;20045;-72
2022/05/31 02:10:23;;;;;;;15.90;7.78;;;10.20;99.90;;;;;;5053534;28;20048;-73
2022/05/31 02:12:51;;;;;;;13.05;6.53;;;10.10;99.90;;;;;;5052893;28;20045;-72
2022/05/31 02:15:37;;;;;;;14.45;6.65;;;10.10;99.90;;;;;;5054662;28;20045;-72
2022/05/31 02:19:15;;;;;;;9.63;6.85;;;10.10;99.90;;;;;;5058520;28;20037;-73
2022/05/31 02:21:38;;;;;;;14.65;8.48;;;10.00;99.90;;;;;;5058266;28;20052;-72
2022/05/31 02:24:11;;;;;;;10.60;6.22;;;9.90;99.90;;;;;;5057885;28;20045;-72
2022/05/31 02:26:43;;;;;;;12.15;7.35;;;10.00;99.90;;;;;;5056366;28;20045;-73
2022/05/31 02:29:13;;;;;;;14.82;9.52;;;9.90;99.90;;;;;;5057309;28;20068;-72
2022/05/31 02:31:41;;;;;;;11.55;6.50;;;9.90;99.90;;;;;;5057842;28;20044;-73
2022/05/31 02:34:12;;;;;;;13.27;5.45;;;9.90;99.90;;;;;;5057044;28;20479;-72
2022/05/31 02:36:39;;;;;;;9.23;4.70;;;9.90;99.90;;;;;;5058183;28;20049;-73
2022/05/31 02:39:07;;;;;;;13.00;6.22;;;9.90;99.90;;;;;;5056148;28;20402;-72
2022/05/31 02:41:38;;;;;;;8.57;4.88;;;9.80;99.90;;;;;;5057274;28;20036;-72
2022/05/31 02:44:07;;;;;;;8.85;5.40;;;9.90;99.90;;;;;;5057007;28;20064;-73
2022/05/31 02:46:36;;;;;;;10.80;4.80;;;9.90;99.90;;;;;;5056276;28;20049;-72
2022/05/31 02:49:06;;;;;;;12.70;4.75;;;9.80;99.90;;;;;;5057257;28;20056;-73
2022/05/31 02:51:40;;;;;;;10.90;4.90;;;9.80;99.90;;;;;;5057934;28;20068;-73
2022/05/31 02:54:09;;;;;;;9.13;4.65;;;9.80;99.90;;;;;;5054811;28;20056;-73
2022/05/31 02:57:04;;;;;;;10.20;4.38;;;9.80;99.90;;;;;;5057807;28;20352;-73
2022/05/31 02:59:50;;;;;;;8.65;4.70;;;9.80;99.90;;;;;;5056463;28;20045;-73
2022/05/31 03:02:36;;;;;;;9.82;4.57;;;9.00;99.90;;;;;;5058042;28;20060;-73
2022/05/31 03:05:29;;;;;;;6.82;3.30;;;9.70;99.90;;;;;;5056879;28;20048;-73
2022/05/31 03:08:03;;;;;;;11.38;3.85;;;9.70;99.90;;;;;;5057784;28;20048;-73
2022/05/31 03:10:43;;;;;;;9.23;3.42;;;9.70;99.90;;;;;;5056719;28;20040;-72
2022/05/31 03:13:14;;;;;;;9.52;4.32;;;9.60;99.90;;;;;;5056630;28;20055;-73
2022/05/31 03:15:43;;;;;;;6.25;4.10;;;9.60;99.90;;;;;;5057765;28;20064;-73
2022/05/31 03:18:17;;;;;;;6.97;4.15;;;9.60;99.90;;;;;;5056499;28;20045;-73
2022/05/31 03:20:48;;;;;;;7.78;4.75;;;9.60;99.90;;;;;;5055271;28;20487;-72
2022/05/31 03:23:21;;;;;;;8.27;4.30;;;9.60;99.90;;;;;;5056259;28;20044;-73
2022/05/31 03:25:50;;;;;;;10.68;5.05;;;9.60;99.90;;;;;;5055261;28;20036;-73
2022/05/31 03:28:20;;;;;;;8.52;4.43;;;9.60;99.90;;;;;;5055805;28;20057;-73
2022/05/31 03:30:48;;;;;;;10.23;4.97;;;9.50;99.90;;;;;;5056601;28;20052;-72
2022/05/31 03:33:16;;;;;;;10.00;5.10;;;9.60;99.90;;;;;;5056096;28;20041;-73
2022/05/31 03:35:44;;;;;;;7.60;4.72;;;9.60;99.90;;;;;;5056041;28;20048;-73
2022/05/31 03:38:38;;;;;;;7.72;3.88;;;9.60;99.90;;;;;;5053836;28;20116;-73
2022/05/31 03:41:08;;;;;;;9.98;4.93;;;9.60;99.90;;;;;;5055029;28;20052;-72
2022/05/31 03:43:44;;;;;;;9.48;5.32;;;9.60;99.90;;;;;;5056850;28;20064;-73
2022/05/31 03:46:21;;;;;;;11.70;5.30;;;9.60;99.90;;;;;;5055738;28;20355;-73
2022/05/31 03:49:10;;;;;;;11.77;6.25;;;9.60;99.90;;;;;;5049629;28;20049;-73
2022/05/31 03:51:42;;;;;;;11.70;5.50;;;9.60;99.90;;;;;;5055991;28;20056;-73
2022/05/31 03:54:30;;;;;;;10.30;5.72;;;9.60;99.90;;;;;;5047737;28;20057;-73
2022/05/31 03:57:18;;;;;;;7.18;3.83;;;9.60;99.90;;;;;;5036809;28;20042;-73
2022/05/31 04:00:11;;;;;;;9.23;4.35;;;9.60;99.90;;;;;;5034736;28;20053;-73
2022/05/31 04:02:48;;;;;;;9.15;4.30;;;9.60;99.90;;;;;;5019132;28;20037;-73
2022/05/31 04:05:17;;;;;;;9.68;4.78;;;9.60;99.90;;;;;;5019241;28;20041;-73
2022/05/31 04:07:44;;;;;;;10.65;4.85;;;9.50;99.90;;;;;;5035295;28;20065;-73
2022/05/31 04:10:12;;;;;;;;;;;9.50;99.90;;;;;;5019463;28;20053;-73
2022/05/31 04:12:41;;;;;;;6.95;4.43;;;9.60;99.90;;;;;;5018183;28;19921;-73
2022/05/31 04:15:29;;;;;;;6.15;4.10;;;9.50;99.90;;;;;;5036692;28;20056;-73
2022/05/31 04:17:57;;;;;;;10.38;4.85;;;9.60;99.90;;;;;;5018927;28;20056;-73
2022/05/31 04:20:25;;;;;;;12.32;5.40;;;9.60;99.90;;;;;;5017685;28;20045;-72
2022/05/31 04:23:57;;;;;;;8.38;5.63;;;9.50;99.90;;;;;;5018877;28;20367;-73
2022/05/31 04:26:05;;;;;;;7.63;3.80;;;9.60;99.90;;;;;;5035026;28;20042;-73
2022/05/31 04:29:11;;;;;;;7.47;4.18;;;9.60;99.90;;;;;;5035986;28;20490;-73
2022/05/31 04:31:57;;;;;;;7.53;3.60;;;9.60;99.90;;;;;;5021267;28;20483;-73
2022/05/31 04:34:38;;;;;;;5.13;2.65;;;9.60;99.90;;;;;;5018803;28;20061;-73
2022/05/31 04:37:06;;;;;;;5.22;4.05;;;9.60;99.90;;;;;;5035965;28;20048;-73
2022/05/31 04:39:54;;;;;;;8.18;4.63;;;9.60;99.90;;;;;;5003511;28;20065;-73
2022/05/31 04:42:42;;;;;;;7.50;4.55;;;9.60;99.90;;;;;;5036490;28;20049;-73
2022/05/31 04:45:27;;;;;;;9.88;4.38;;;9.70;99.90;;;;;;5034895;28;20045;-73
2022/05/31 04:47:56;;;;;;;8.48;4.20;;;9.70;99.90;;;;;;5018556;28;20376;-73
2022/05/31 04:50:24;;;;;;;7.60;3.72;;;9.70;99.90;;;;;;5018303;28;20419;-73
2022/05/31 04:52:52;;;;;;;6.70;4.03;;;9.70;99.90;;;;;;5017161;28;20490;-73
2022/05/31 04:55:19;;;;;;;6.65;3.13;;;9.70;99.90;;;;;;5042732;28;20045;-73
2022/05/31 04:57:52;;;;;;;5.47;2.92;;;9.70;99.90;;;;;;5054676;28;20045;-73
2022/05/31 05:00:21;;;;;;;6.15;3.17;;;9.70;99.90;;;;;;5053437;28;20037;-73
2022/05/31 05:02:59;;;;;;;5.18;3.47;;;9.70;99.90;;;;;;5054467;28;20044;-73
2022/05/31 05:05:32;;;;;;;6.18;3.10;;;9.70;99.90;;;;;;5053315;28;20049;-73
2022/05/31 05:08:08;;;;;;;4.68;3.08;;;9.70;99.90;;;;;;5054689;28;20041;-73
2022/05/31 05:10:37;;;;;;;5.32;3.38;;;9.60;99.90;;;;;;5054287;28;20053;-73
2022/05/31 05:13:18;;;;;;;3.95;2.72;;;9.60;99.90;;;;;;5053212;28;20068;-73
2022/05/31 05:16:06;;;;;;;4.80;2.40;;;9.70;99.90;;;;;;5055775;28;20040;-73
2022/05/31 05:18:38;;;;;;;5.10;2.78;;;9.70;99.90;;;;;;5054457;28;20366;-73
2022/05/31 05:21:10;;;;;;;3.00;2.10;;;9.70;99.90;;;;;;5053163;28;20049;-73
2022/05/31 05:23:40;;;;;;;5.68;2.60;;;9.70;99.90;;;;;;5054150;28;20482;-73
2022/05/31 05:26:12;;;;;;;4.55;2.33;;;9.70;99.90;;;;;;5053144;28;20045;-73
2022/05/31 05:31:42;;;;;;;4.18;2.50;;;9.70;99.90;;;;;;5037561;28;20049;-73
2022/05/31 05:34:28;;;;;;;7.20;2.85;;;9.80;99.90;;;;;;5053916;28;20037;-73
2022/05/31 05:36:58;;;;;;;4.80;2.38;;;9.80;99.90;;;;;;5054618;28;20398;-73
2022/05/31 05:39:26;;;;;;;4.82;2.60;;;9.80;99.90;;;;;;5052672;28;20352;-73
2022/05/31 05:41:53;;;;;;;5.20;2.33;;;9.80;99.90;;;;;;5054736;28;20064;-73
2022/05/31 05:44:33;;;;;;;4.93;2.45;;;9.80;99.90;;;;;;5054790;28;20099;-73
2022/05/31 05:47:06;;;;;;;6.03;2.90;;;9.70;99.90;;;;;;5035965;28;20063;-73
2022/05/31 05:49:34;;;;;;;7.10;3.40;;;9.80;99.90;;;;;;5054077;28;20045;-73
2022/05/31 05:52:17;;;;;;;6.25;3.30;;;9.90;99.90;;;;;;5053098;28;20052;-73
2022/05/31 05:55:04;;;;;;;6.25;3.13;;;9.90;99.90;;;;;;5042667;28;20068;-73
2022/05/31 05:57:50;;;;;;;5.93;3.40;;;10.00;99.90;;;;;;5035249;28;20064;-73
2022/05/31 06:00:47;;;;;;;5.95;3.28;;;10.10;99.90;;;;;;5033599;28;20045;-73
2022/05/31 06:03:28;;;;;;;5.32;2.72;;;10.20;99.90;;;;;;5001230;28;20045;-73
2022/05/31 06:06:04;;;;;;;7.65;2.70;;;10.30;99.90;;;;;;5033859;28;20045;-73
2022/05/31 06:08:36;;;;;;;2.70;2.20;;;10.40;99.90;;;;;;5017242;28;20068;-73
2022/05/31 06:11:04;;;;;;;5.65;2.17;;;10.50;99.90;;;;;;5017433;28;20045;-73
2022/05/31 06:13:50;;;;;;;5.82;2.40;;;10.40;99.90;;;;;;5016273;28;20049;-73
2022/05/31 06:16:21;;;;;;;4.63;2.13;;;10.50;99.90;;;;;;5017869;28;20049;-73
2022/05/31 06:18:56;;;;;;;7.05;2.45;;;10.50;99.90;;;;;;5016612;28;20052;-73
2022/05/31 06:21:25;;;;;;;5.10;2.92;;;10.50;99.90;;;;;;5034667;28;20375;-73
2022/05/31 06:24:01;;;;;;;5.13;2.90;;;10.50;99.90;;;;;;5017402;28;20060;-73
2022/05/31 06:26:32;;;;;;;4.60;2.67;;;10.50;99.90;;;;;;4999634;28;20041;-73
2022/05/31 06:29:05;;;;;;;4.60;2.20;;;10.60;99.90;;;;;;5017443;28;20486;-73
2022/05/31 06:31:32;;;;;;;;;;;10.60;99.90;;;;;;5017448;28;20045;-73
2022/05/31 06:34:03;;;;;;;3.92;2.65;;;10.70;99.90;;;;;;5016025;28;19932;-73
2022/05/31 06:37:08;;;;;;;;;;;10.80;99.90;;;;;;5034332;28;20349;-73
2022/05/31 06:39:38;;;;;;;3.20;1.90;;;10.90;99.90;;;;;;4999803;28;19921;-73
2022/05/31 06:42:20;;;;;;;3.70;1.98;;;11.10;99.90;;;;;;5016897;28;20048;-73
2022/05/31 06:45:17;;;;;;;2.93;1.70;;;11.30;99.90;;;;;;4964046;28;20370;-73
2022/05/31 06:48:08;;;;;;;5.15;1.95;;;11.30;99.90;;;;;;4997221;28;20279;-73
2022/05/31 06:56:48;;;;;;;2.45;1.52;;;11.40;99.90;;;;;;4954634;29;20504;-73
2022/05/31 06:57:35;;;;;;;4.45;2.10;;;11.40;99.90;;;;;;5048361;28;20057;-73
2022/05/31 07:00:14;;;;;;;3.13;1.50;;;11.40;99.90;;;;;;5051918;28;20052;-73
2022/05/31 07:02:42;;;;;;;4.22;1.70;;;11.40;99.90;;;;;;5055122;28;20041;-73
2022/05/31 07:05:12;;;;;;;4.72;1.85;;;11.30;99.90;;;;;;5039633;28;20048;-73
2022/05/31 07:07:40;;;;;;;3.40;2.00;;;11.30;99.90;;;;;;5055237;28;20045;-73
2022/05/31 07:10:26;;;;;;;4.07;1.55;;;11.30;99.90;;;;;;5056640;28;20053;-73
2022/05/31 07:13:12;;;;;;;3.40;1.80;;;11.20;99.90;;;;;;5056163;28;20045;-73
2022/05/31 07:16:11;;;;;;;6.13;1.60;;;11.20;99.90;;;;;;5056319;28;20044;-72
2022/05/31 07:18:59;;;;;;;4.20;1.63;;;11.20;99.90;;;;;;5055502;28;20080;-73
2022/05/31 07:21:33;;;;;;;3.25;1.35;;;11.30;99.90;;;;;;5056458;28;20040;-73
2022/05/31 07:24:01;;;;;;;3.47;1.50;;;11.40;99.90;;;;;;5057312;28;20041;-73
2022/05/31 07:26:33;;;;;;;3.08;1.42;;;11.50;99.90;;;;;;5055454;28;20494;-73
2022/05/31 07:29:04;;;;;;;4.70;1.20;;;11.70;99.90;;;;;;5039735;28;20049;-73
2022/05/31 07:31:35;;;;;;;4.90;1.30;;;11.80;99.90;;;;;;5039668;28;20045;-73
2022/05/31 07:34:14;;;;;;;4.25;1.27;;;11.90;99.90;;;;;;5056115;28;20052;-73
2022/05/31 07:36:42;;;;;;;5.32;1.33;;;12.10;99.90;;;;;;5057094;28;20387;-73
2022/05/31 07:39:15;;;;;;;2.80;1.48;;;12.30;99.90;;;;;;5055059;28;20048;-73
2022/05/31 07:41:45;;;;;;;4.85;1.70;;;12.50;99.90;;;;;;5055942;28;20048;-73
2022/05/31 07:44:14;;;;;;;5.93;3.22;;;12.70;99.90;;;;;;5055911;28;20037;-73
2022/05/31 07:46:42;;;;;;;7.45;4.93;;;13.00;99.90;;;;;;5055878;28;20467;-73
2022/05/31 07:49:11;;;;;;;10.43;4.90;;;13.10;99.90;;;;;;5039465;28;20079;-73
2022/05/31 07:51:54;;;;;;;6.55;3.00;;;13.30;99.90;;;;;;5055103;28;20073;-73
2022/05/31 07:54:40;;;;;;;7.53;3.22;;;13.50;99.90;;;;;;5047922;28;20058;-73
2022/05/31 08:00:19;;;;;;;5.07;1.55;;;13.80;99.90;;;;;;5035664;28;20475;-73
2022/05/31 08:02:46;;;;;;;7.22;1.50;;;13.90;99.90;;;;;;5036537;28;20052;-73
2022/05/31 08:05:14;;;;;;;2.92;1.40;;;14.00;99.90;;;;;;5019116;28;20060;-73
2022/05/31 08:07:42;;;;;;;3.75;1.52;;;14.10;99.90;;;;;;5034548;28;20053;-72
2022/05/31 08:10:11;;;;;;;5.22;1.60;;;14.20;99.90;;;;;;5040038;28;20041;-76
2022/05/31 08:12:39;;;;;;;5.43;1.50;;;14.20;99.90;;;;;;5037113;28;20050;-78
2022/05/31 08:15:07;;;;;;;7.18;1.55;;;14.40;99.90;;;;;;5040859;28;20041;-76
2022/05/31 08:17:34;;;;;;;3.70;0.90;;;14.50;99.90;;;;;;5055889;28;20049;-75
2022/05/31 08:20:04;;;;;;;6.88;1.42;;;14.60;99.90;;;;;;5054462;28;20037;-76
2022/05/31 08:22:33;;;;;;;6.55;1.30;;;14.60;99.90;;;;;;5056178;28;20048;-73
2022/05/31 08:25:01;;;;;;;;;;;14.70;99.90;;;;;;5055272;28;20041;-74
2022/05/31 08:27:28;;;;;;;6.35;1.33;;;14.70;99.90;;;;;;5054829;28;19934;-73
2022/05/31 08:29:56;;;;;;;5.70;1.15;;;14.80;99.90;;;;;;5038527;28;20045;-73
2022/05/31 08:32:25;;;;;;;3.83;1.20;;;14.90;99.90;;;;;;5055120;28;20224;-73
2022/05/31 08:34:52;;;;;;;3.28;1.05;;;15.00;99.90;;;;;;5056457;28;20471;-73
2022/05/31 08:37:27;;;;;;;6.45;1.02;;;15.00;99.90;;;;;;5055954;28;20041;-74
2022/05/31 08:39:55;;;;;;;2.85;1.20;;;15.00;99.90;;;;;;5054598;28;20480;-74
2022/05/31 08:42:45;;;;;;;4.15;1.08;;;14.90;99.90;;;;;;5038871;28;20048;-74
2022/05/31 08:45:50;;;;;;;5.50;1.10;;;15.00;99.90;;;;;;5038448;28;20064;-74
2022/05/31 08:48:31;;;;;;;4.90;1.02;;;15.00;99.90;;;;;;5038224;28;20543;-73
2022/05/31 08:57:02;;;;;;;4.22;1.10;;;15.30;99.90;;;;;;5021613;28;20052;-73
2022/05/31 08:59:55;;;;;;;4.13;1.17;;;15.40;99.90;;;;;;5037181;28;20048;-74
2022/05/31 09:02:44;;;;;;;3.58;1.10;;;15.40;99.90;;;;;;5055593;28;20045;-73
2022/05/31 09:05:34;;;;;;;5.68;1.25;;;15.30;99.90;;;;;;5054769;28;20053;-74
2022/05/31 09:08:24;;;;;;;3.78;1.20;;;15.30;99.90;;;;;;5055556;28;20359;-73
2022/05/31 09:11:21;;;;;;;3.67;1.20;;;15.20;99.90;;;;;;5037796;28;20059;-73
2022/05/31 09:14:19;;;;;;;4.47;1.17;;;15.00;99.90;;;;;;5036627;28;20056;-74
2022/05/31 09:16:51;;;;;;;6.25;1.35;;;14.80;99.90;;;;;;5053988;28;20301;-73
2022/05/31 09:19:58;;;;;;;4.40;1.50;;;14.60;99.90;;;;;;5054563;28;20056;-74
2022/05/31 09:22:25;;;;;;;3.28;1.10;;;14.40;99.90;;;;;;4973832;28;20057;-74
2022/05/31 09:24:53;;;;;;;7.97;1.33;;;14.20;99.90;;;;;;5054512;28;20056;-73
2022/05/31 09:27:33;;;;;;;4.82;1.20;;;14.10;99.30;;;;;;5036438;28;20059;-73
2022/05/31 09:30:20;;;;;;;4.72;1.25;;;14.00;99.90;;;;;;5054678;28;20045;-73
2022/05/31 09:32:57;;;;;;;4.18;1.50;;;14.00;99.90;;;;;;5053855;28;20053;-73
2022/05/31 09:35:56;;;;;;;6.90;1.50;;;14.00;99.50;;;;;;5037087;28;20047;-74
2022/05/31 09:38:27;;;;;;;5.32;1.50;;;14.00;98.50;;;;;;5037122;28;20700;-73
2022/05/31 09:41:07;;;;;;;6.47;1.40;;;14.10;99.30;;;;;;5053643;28;20045;-73
2022/05/31 09:43:51;;;;;;;4.97;1.45;;;14.20;99.10;;;;;;5054443;28;20056;-73
2022/05/31 09:46:42;;;;;;;5.13;1.40;;;14.30;98.70;;;;;;5053692;28;20467;-73
2022/05/31 09:49:31;;;;;;;8.65;1.60;;;14.60;98.10;;;;;;5054303;28;20052;-73
2022/05/31 09:51:59;;;;;;;3.55;1.05;;;14.90;98.10;;;;;;5054377;28;20053;-73
2022/05/31 09:57:24;;;;;;;3.65;1.30;;;15.40;98.30;;;;;;5074306;28;20059;-73
2022/05/31 10:00:20;;;;;;;3.35;1.30;;;15.60;97.20;;;;;;5073484;28;20055;-73
2022/05/31 10:03:03;;;;;;;5.20;1.40;;;15.80;97.50;;;;;;5074523;28;20047;-73
2022/05/31 10:05:31;;;;;;;4.03;1.40;;;15.80;95.90;;;;;;5073397;28;20048;-73
2022/05/31 10:07:59;;;;;;;6.55;1.60;;;15.80;97.00;;;;;;5074280;28;20059;-73
2022/05/31 10:10:36;;;;;;;5.03;1.20;;;15.90;97.00;;;;;;5074257;28;20045;-73
2022/05/31 10:13:09;;;;;;;11.38;1.50;;;15.80;95.80;;;;;;5072614;28;20470;-73
2022/05/31 10:15:43;;;;;;;3.40;1.10;;;15.80;94.70;;;;;;5074190;28;20048;-73
2022/05/31 10:18:23;;;;;;;3.50;1.10;;;15.80;95.00;;;;;;5073096;28;20052;-74
2022/05/31 10:20:55;;;;;;;3.78;1.15;;;16.10;94.80;;;;;;5073113;28;20060;-74
2022/05/31 10:23:34;;;;;;;2.47;0.95;;;16.40;93.60;;;;;;5074223;28;20451;-73
2022/05/31 10:26:32;;;;;;;5.15;1.00;;;16.80;93.10;;;;;;5071925;28;20048;-73
2022/05/31 10:29:33;;;;;;;4.72;1.20;;;17.10;93.70;;;;;;5074138;28;20053;-74
2022/05/31 10:32:43;;;;;;;3.70;1.10;;;17.30;93.30;;;;;;5053366;28;20063;-74
2022/05/31 10:35:16;;;;;;;6.05;1.80;;;17.30;93.10;;;;;;5074136;28;20366;-76
2022/05/31 10:37:57;;;;;;;6.53;1.80;;;17.30;93.70;;;;;;5074972;28;20506;-74
2022/05/31 10:40:53;;;;;;;4.88;1.17;;;17.40;93.50;;;;;;5075990;28;20048;-73
2022/05/31 10:43:40;;;;;;;5.88;1.20;;;17.40;92.80;;;;;;5061305;28;20056;-73
2022/05/31 10:46:28;;;;;;;3.30;0.95;;;17.50;92.50;;;;;;5077231;28;20053;-73
2022/05/31 10:49:00;;;;;;;2.70;1.13;;;17.50;91.70;;;;;;5077850;28;20052;-74
2022/05/31 10:51:58;;;;;;;3.90;1.23;;;17.50;91.80;;;;;;5077834;28;20052;-73
2022/05/31 10:54:53;;;;;;;4.63;1.67;;;17.60;91.10;;;;;;5069922;28;20049;-73
2022/05/31 10:57:41;;;;;;;6.22;1.30;;;17.80;90.80;;;;;;5023848;28;20045;-73
2022/05/31 11:00:40;;;;;;;3.45;1.27;;;18.10;90.50;;;;;;5039557;28;20040;-74
2022/05/31 11:03:32;;;;;;;5.93;1.30;;;18.30;90.40;;;;;;5057876;28;20059;-74
2022/05/31 11:06:15;;;;;;;3.63;1.27;;;18.30;90.80;;;;;;5056644;28;20049;-74
2022/05/31 11:12:28;;;;;;;3.05;1.10;;;18.00;90.00;;;;;;5057002;28;20463;-76
2022/05/31 11:15:05;;;;;;;2.57;1.00;;;17.60;90.00;;;;;;5057284;28;20052;-74
2022/05/31 11:17:42;;;;;;;1.88;0.75;;;17.20;90.90;;;;;;5057175;28;20045;-75
2022/05/31 11:20:28;;;;;;;3.00;1.10;;;16.80;91.80;;;;;;5056063;28;20045;-73
2022/05/31 11:23:17;;;;;;;4.38;1.00;;;16.40;92.70;;;;;;5039731;28;20037;-74
2022/05/31 11:26:26;;;;;;;2.38;0.98;;;16.20;93.80;;;;;;5055892;28;20280;-74
2022/05/31 11:29:16;;;;;;;5.35;0.70;;;16.00;94.90;;;;;;5057571;28;20028;-74
2022/05/31 11:32:06;;;;;;;3.08;0.82;;;16.00;94.10;;;;;;5057427;28;20049;-74
2022/05/31 11:34:42;;;;;;;3.70;0.85;;;16.00;93.30;;;;;;5039717;28;20048;-75
2022/05/31 11:37:26;;;;;;;3.55;1.00;;;16.10;93.70;;;;;;5057708;28;20049;-74
2022/05/31 11:40:03;;;;;;;4.00;1.08;;;16.20;93.90;;;;;;5038785;28;20059;-75
2022/05/31 11:43:01;;;;;;;2.93;0.90;;;16.40;93.30;;;;;;5039961;28;20041;-74
2022/05/31 11:45:49;;;;;;;1.75;0.70;;;16.80;91.30;;;;;;5055743;28;20601;-74
2022/05/31 11:48:22;;;;;;;4.05;1.20;;;17.20;90.60;;;;;;4991048;28;20049;-74
2022/05/31 11:51:06;;;;;;;3.33;1.08;;;17.60;91.20;;;;;;5039698;28;20067;-73
2022/05/31 11:54:04;;;;;;;4.70;1.20;;;17.90;90.90;;;;;;5037942;28;20045;-73
2022/05/31 11:57:07;;;;;;;2.47;1.13;;;18.10;90.40;;;;;;5056719;28;20070;-73
2022/05/31 11:59:38;;;;;;;7.57;1.60;;;17.90;87.70;;;;;;4958874;28;20046;-73
2022/05/31 12:02:16;;;;;;;19.15;3.40;;;17.60;91.10;;;;;;5042484;28;20052;-71
2022/05/31 12:04:51;;;;;;;8.82;2.75;;;16.50;99.90;;;;;;5056979;28;20041;-72
2022/05/31 12:07:42;;;;;;;14.00;2.20;;;15.00;99.90;;;;;;5055500;28;20045;-71
2022/05/31 12:10:18;;;;;;;6.85;2.20;;;13.90;99.90;;;;;;5056372;28;20056;-73
2022/05/31 12:12:46;;;;;;;6.57;2.50;;;13.20;99.90;;;;;;5055476;28;20045;-74
2022/05/31 12:15:28;;;;;;;6.75;1.83;;;13.00;99.90;;;;;;5056859;28;20056;-75
2022/05/31 12:18:19;;;;;;;6.07;2.92;;;13.00;99.90;;;;;;5055624;28;20049;-73
2022/05/31 12:21:18;;;;;;;5.75;2.25;;;13.20;99.90;;;;;;5054012;28;20048;-74
2022/05/31 12:23:58;;;;;;;6.20;2.13;;;13.50;99.90;;;;;;5056171;28;20045;-74
2022/05/31 12:26:38;;;;;;;5.50;2.03;;;13.70;99.90;;;;;;5054990;28;20053;-73
2022/05/31 12:29:05;;;;;;;6.38;2.25;;;13.80;99.90;;;;;;5054379;28;20041;-77
2022/05/31 12:31:36;;;;;;;6.30;1.92;;;14.00;99.90;;;;;;5055716;28;20494;-73
2022/05/31 12:34:19;;;;;;;9.00;2.65;;;14.20;99.90;;;;;;5054705;28;20045;-73
2022/05/31 12:36:56;;;;;;;7.05;2.00;;;14.40;99.90;;;;;;5054804;28;20048;-74
2022/05/31 12:39:28;;;;;;;4.38;1.98;;;14.70;99.90;;;;;;5054339;28;20049;-74
2022/05/31 12:41:56;;;;;;;6.07;1.95;;;15.20;99.90;;;;;;5055590;28;20045;-74
2022/05/31 12:44:34;;;;;;;5.65;1.65;;;15.60;99.90;;;;;;5055147;28;20044;-74
2022/05/31 12:47:30;;;;;;;11.70;2.28;;;15.90;99.90;;;;;;5053700;28;20051;-75
2022/05/31 12:50:11;;;;;;;4.22;1.52;;;15.90;99.90;;;;;;5054664;28;20367;-74
2022/05/31 12:55:36;;;;;;;7.30;2.20;;;15.70;99.90;;;;;;5040482;28;20056;-76
2022/05/31 12:58:35;;;;;;;5.07;1.80;;;15.50;99.90;;;;;;5048343;28;20391;-75
2022/05/31 13:01:12;;;;;;;4.05;1.10;;;15.30;99.90;;;;;;5037264;28;20049;-77
2022/05/31 13:03:42;;;;;;;4.28;1.52;;;15.20;99.90;;;;;;5054884;28;20044;-76
2022/05/31 13:06:29;;;;;;;3.08;1.30;;;15.20;99.90;;;;;;5054485;28;20041;-75
2022/05/31 13:09:00;;;;;;;2.22;1.10;;;15.40;99.90;;;;;;5038122;28;20056;-76
2022/05/31 13:20:11;;;;;;;2.42;1.02;;;16.40;99.90;;;;;;5034386;28;20055;-74
2022/05/31 13:22:43;;;;;;;3.78;0.95;;;16.40;99.90;;;;;;5035285;28;20464;-75
2022/05/31 13:25:32;;;;;;;3.67;1.00;;;16.20;99.90;;;;;;5049040;28;20059;-75
2022/05/31 13:28:02;;;;;;;3.78;1.20;;;16.10;99.90;;;;;;5049817;28;20036;-73
2022/05/31 13:30:32;;;;;;;3.30;0.90;;;16.40;99.90;;;;;;5035014;28;20042;-74
2022/05/31 13:33:18;;;;;;;3.33;1.10;;;17.10;99.90;;;;;;5033995;28;20042;-72
2022/05/31 13:35:56;;;;;;;2.67;0.95;;;17.20;99.90;;;;;;5017818;28;20049;-75
2022/05/31 13:38:26;;;;;;;3.13;1.40;;;17.00;99.60;;;;;;5035276;28;20042;-74
2022/05/31 13:40:59;;;;;;;5.20;1.30;;;16.80;99.90;;;;;;5033923;28;20045;-75
2022/05/31 13:43:35;;;;;;;2.33;1.10;;;16.60;99.90;;;;;;5042034;28;20036;-74
2022/05/31 13:46:28;;;;;;;2.53;0.60;;;16.40;99.90;;;;;;5043994;28;20491;-74
2022/05/31 13:49:05;;;;;;;3.13;0.85;;;16.20;99.90;;;;;;5037795;28;20048;-73
2022/05/31 13:51:33;;;;;;;2.53;0.90;;;15.90;99.90;;;;;;5034911;28;20471;-73
2022/05/31 13:54:15;;;;;;;3.95;0.95;;;15.70;99.90;;;;;;5033459;28;20049;-72
2022/05/31 13:56:45;;;;;;;2.72;1.00;;;15.50;99.90;;;;;;5017308;28;20387;-75
2022/05/31 13:59:13;;;;;;;1.75;0.75;;;15.30;99.90;;;;;;5033637;28;20480;-74
2022/05/31 14:01:46;;;;;;;2.00;0.60;;;15.40;99.90;;;;;;5034515;28;20072;-74
2022/05/31 14:04:20;;;;;;;0.57;0.40;;;16.20;99.90;;;;;;5028213;28;20474;-75
2022/05/31 14:06:51;;;;;;;1.08;0.52;;;16.90;99.90;;;;;;5046555;28;20448;-74
2022/05/31 14:09:26;;;;;;;2.05;0.40;;;18.00;99.90;;;;;;5054392;28;20064;-74
2022/05/31 14:11:57;;;;;;;1.33;0.35;;;18.90;99.90;;;;;;5054226;28;20049;-73
2022/05/31 14:14:28;;;;;;;1.23;0.30;;;20.40;97.60;;;;;;5037047;28;20452;-73
2022/05/31 14:16:58;;;;;;;2.28;0.52;;;21.30;96.10;;;;;;5020380;28;20041;-73